• Join FlightAware (Why Join?)
  • Login
  • US Flag 
Trick or treat! (Boo!!) 
05:21AM EDT


 

Airport Tracker/Info


-or-


 

Live Flight TrackerFlight Track Log ✈ AAR8736 ✈ 10-01-2014 ✈ RKJY / RSU - RKSS / GMP

Flight Track Log - Related Links

Times and Time Zones

All times are in EST time to prevent confusion due to time zone crossing. See the AAR8736 flight status page for this flight to view local times or setup timezone preferences in your user account.

Time Position Orientation Groundspeed Altitude Reporting Facility
EST Latitude Longitude Course Direction KTS MPH feet Rate Location/Type
02:27AM 35.1346 127.5287 346° North  Level Estimated
02:28AM 35.2083 127.5069 346° North  Level Estimated
02:29AM 35.2820 127.4851 346° North  Level Estimated
02:30AM 35.3557 127.4633 346° North  Level Estimated
02:31AM 35.4293 127.4414 346° North  Level Estimated
02:32AM 35.5030 127.4195 346° North  Level Estimated
02:33AM 35.5767 127.3975 346° North  Level Estimated
02:34AM 35.6503 127.3755 346° North  Level Estimated
02:35AM 35.7240 127.3535 346° North  Level Estimated
02:36AM 35.7977 127.3314 346° North  Level Estimated
02:37AM 35.8713 127.3093 346° North  Level Estimated
02:38AM 35.9450 127.2871 346° North  Level Estimated
02:39AM 36.0186 127.2649 346° North  Level Estimated
02:40AM 36.0922 127.2427 346° North  Level Estimated
02:41AM 36.1659 127.2204 346° North  Level Estimated
02:42AM 36.2395 127.1981 346° North  Level Estimated
02:43AM 36.3131 127.1757 346° North  Level Estimated
02:44AM 36.3868 127.1533 346° North  Level Estimated
02:45AM 36.4604 127.1308 346° North  Level Estimated
02:46AM 36.5340 127.1083 346° North  Level Estimated
02:47AM 36.6076 127.0858 346° North  Level Estimated
02:48AM 36.6812 127.0632 346° North  Level Estimated
02:49AM 36.7548 127.0406 346° North  Level Estimated
02:50AM 36.8284 127.0179 346° North  Level Estimated
02:51AM 36.9020 126.9952 346° North  Level Estimated
02:52AM 36.9756 126.9724 346° North  Level Estimated
02:53AM 37.0492 126.9496 346° North  Level Estimated
02:54AM 37.1228 126.9268 346° North  Level Estimated
02:55AM 37.1964 126.9039 346° North  Level Estimated
02:56AM 37.2699 126.8809 346° North  Level Estimated
02:57AM 37.3435 126.8580 346° North  Level Estimated
02:58AM 37.4170 126.8349 346° North  Level Estimated
02:59AM 37.4906 126.8119 346° North  Level Estimated
03:00AM 37.5583 126.7906 346° North  Level Estimated
03:01AM 37.5583 126.7906 288° West  Level Estimated
03:02AM 37.5583 126.7906 288° West  Level Estimated
03:03AM 37.5583 126.7906 288° West  Level Estimated
03:04AM 37.5583 126.7906 288° West  Level Estimated
03:05AM 37.5583 126.7906 288° West  Level Estimated
03:06AM 37.5583 126.7906 288° West  Level Estimated
03:07AM 37.5583 126.7906 288° West  Level Estimated
03:08AM 37.5583 126.7906 288° West  Level Estimated
03:09AM 37.5583 126.7906 288° West  Level Estimated
03:10AM 37.5583 126.7906 288° West  Level Estimated
03:11AM 37.5583 126.7906 288° West  Level Estimated
03:12AM 37.5583 126.7906 288° West  Level Estimated
03:13AM 37.5583 126.7906 288° West  Level Estimated
03:14AM 37.5583 126.7906 288° West  Level Estimated